createdAt,value
2023-04-27T00:01:22.120Z,10.97
2023-04-27T00:03:49.287Z,10.92
2023-04-27T00:06:16.885Z,10.85
2023-04-27T00:08:43.816Z,10.79
2023-04-27T00:11:10.899Z,10.73
2023-04-27T00:13:37.950Z,10.68
2023-04-27T00:16:05.240Z,10.66
2023-04-27T00:18:32.471Z,10.65
2023-04-27T00:21:00.134Z,10.62
2023-04-27T00:23:27.989Z,10.61
2023-04-27T00:25:54.909Z,10.56
2023-04-27T00:28:21.812Z,10.54
2023-04-27T00:30:49.057Z,10.52
2023-04-27T00:33:17.110Z,10.51
2023-04-27T00:35:44.040Z,10.49
2023-04-27T00:38:11.726Z,10.47
2023-04-27T00:40:39.277Z,10.45
2023-04-27T00:43:06.368Z,10.42
2023-04-27T00:45:37.897Z,10.40
2023-04-27T00:48:05.101Z,10.39
2023-04-27T00:50:32.103Z,10.38
2023-04-27T00:52:59.018Z,10.36
2023-04-27T00:55:26.021Z,10.34
2023-04-27T00:57:53.003Z,10.31
2023-04-27T01:00:20.141Z,10.27
2023-04-27T01:02:48.172Z,10.24
2023-04-27T01:05:17.896Z,10.19
2023-04-27T01:07:46.595Z,10.15
2023-04-27T01:10:13.557Z,10.12
2023-04-27T01:12:42.225Z,10.07
2023-04-27T01:15:10.429Z,10.03
2023-04-27T01:17:37.526Z,9.99
2023-04-27T01:20:07.565Z,9.94
2023-04-27T01:22:34.811Z,9.90
2023-04-27T01:25:01.861Z,9.85
2023-04-27T01:27:31.303Z,9.79
2023-04-27T01:29:58.299Z,9.75
2023-04-27T01:32:26.139Z,9.73
2023-04-27T01:34:53.155Z,9.72
2023-04-27T01:37:20.101Z,9.70
2023-04-27T01:39:47.462Z,9.66
2023-04-27T01:42:14.375Z,9.63
2023-04-27T01:44:41.338Z,9.59
2023-04-27T01:47:09.475Z,9.56
2023-04-27T01:49:36.539Z,9.56
2023-04-27T01:52:03.784Z,9.55
2023-04-27T01:54:30.759Z,9.52
2023-04-27T01:56:58.884Z,9.50
2023-04-27T01:59:25.881Z,9.49
2023-04-27T02:01:59.488Z,9.48
2023-04-27T02:04:26.609Z,9.47
2023-04-27T02:06:53.742Z,9.44
2023-04-27T02:09:20.692Z,9.44
2023-04-27T02:11:47.661Z,9.42
2023-04-27T02:14:14.724Z,9.40
2023-04-27T02:16:41.714Z,9.37
2023-04-27T02:19:08.692Z,9.34
2023-04-27T02:21:36.418Z,9.31
2023-04-27T02:24:03.553Z,9.29
2023-04-27T02:26:31.009Z,9.29
2023-04-27T02:28:58.175Z,9.28
2023-04-27T02:31:25.793Z,9.28
2023-04-27T02:33:53.098Z,9.26
2023-04-27T02:36:20.054Z,9.24
2023-04-27T02:38:47.319Z,9.20
2023-04-27T02:41:14.236Z,9.19
2023-04-27T02:43:41.445Z,9.17
2023-04-27T02:46:08.720Z,9.17
2023-04-27T02:48:35.791Z,9.16
2023-04-27T02:51:04.898Z,9.12
2023-04-27T02:53:31.823Z,9.09
2023-04-27T02:55:59.402Z,9.07
2023-04-27T02:58:26.821Z,9.07
2023-04-27T03:00:55.859Z,9.05
2023-04-27T03:03:23.734Z,9.06
2023-04-27T03:05:51.141Z,9.06
2023-04-27T03:08:18.901Z,9.05
2023-04-27T03:10:45.851Z,9.02
2023-04-27T03:13:14.150Z,9.02
2023-04-27T03:15:43.277Z,9.01
2023-04-27T03:18:10.292Z,8.99
2023-04-27T03:20:37.295Z,8.98
2023-04-27T03:23:04.359Z,8.97
2023-04-27T03:25:31.407Z,8.94
2023-04-27T03:27:58.432Z,8.94
2023-04-27T03:30:25.374Z,8.95
2023-04-27T03:32:52.344Z,8.96
2023-04-27T03:35:19.692Z,8.96
2023-04-27T03:37:47.054Z,8.94
2023-04-27T03:40:14.628Z,8.91
2023-04-27T03:42:41.631Z,8.89
2023-04-27T03:45:09.603Z,8.87
2023-04-27T03:47:36.593Z,8.87
2023-04-27T03:50:04.450Z,8.87
2023-04-27T03:52:32.835Z,8.85
2023-04-27T03:55:01.314Z,8.82
2023-04-27T03:57:28.422Z,8.80
2023-04-27T03:59:55.728Z,8.78
2023-04-27T04:02:23.629Z,8.77
2023-04-27T04:04:51.117Z,8.77
2023-04-27T04:07:18.270Z,8.77
2023-04-27T04:09:45.466Z,8.77
2023-04-27T04:12:12.489Z,8.74
2023-04-27T04:14:40.188Z,8.69
2023-04-27T04:17:09.733Z,8.65
2023-04-27T04:19:36.722Z,8.63
2023-04-27T04:22:03.649Z,8.63
2023-04-27T04:24:30.904Z,8.63
2023-04-27T04:26:58.772Z,8.60
2023-04-27T04:29:25.896Z,8.59
2023-04-27T04:31:52.955Z,8.59
2023-04-27T04:34:20.214Z,8.61
2023-04-27T04:36:47.337Z,8.62
2023-04-27T04:39:15.121Z,8.63
2023-04-27T04:41:43.688Z,8.66
2023-04-27T04:44:11.749Z,8.69
2023-04-27T04:46:39.068Z,8.71
2023-04-27T04:49:06.672Z,8.70
2023-04-27T04:51:33.886Z,8.67
2023-04-27T04:54:01.973Z,8.66
2023-04-27T04:56:29.344Z,8.66
2023-04-27T04:58:56.613Z,8.67
2023-04-27T05:01:24.928Z,8.69
2023-04-27T05:03:52.033Z,8.68
2023-04-27T05:06:19.248Z,8.67
2023-04-27T05:08:46.260Z,8.68
2023-04-27T05:11:13.462Z,8.68
2023-04-27T05:13:40.493Z,8.68
2023-04-27T05:16:07.889Z,8.66
2023-04-27T05:18:34.989Z,8.62
2023-04-27T05:21:02.359Z,8.59
2023-04-27T05:23:29.420Z,8.56
2023-04-27T05:25:56.390Z,8.54
2023-04-27T05:28:23.489Z,8.51
2023-04-27T05:30:50.848Z,8.49
2023-04-27T05:33:17.923Z,8.47
2023-04-27T05:35:44.919Z,8.47
2023-04-27T05:38:15.206Z,8.50
2023-04-27T05:40:42.166Z,8.52
2023-04-27T05:43:09.076Z,8.52
2023-04-27T05:45:39.908Z,8.51
2023-04-27T05:48:06.999Z,8.52
2023-04-27T05:50:34.019Z,8.54
2023-04-27T05:53:01.159Z,8.55
2023-04-27T05:55:28.234Z,8.58
2023-04-27T05:58:07.107Z,8.59
2023-04-27T06:00:36.707Z,8.60
2023-04-27T06:03:04.026Z,8.60
2023-04-27T06:05:31.743Z,8.62
2023-04-27T06:07:58.988Z,8.63
2023-04-27T06:10:26.272Z,8.63
2023-04-27T06:12:53.323Z,8.62
2023-04-27T06:15:21.013Z,8.63
2023-04-27T06:17:48.068Z,8.65
2023-04-27T06:20:15.919Z,8.68
2023-04-27T06:22:43.726Z,8.68
2023-04-27T06:25:10.670Z,8.69
2023-04-27T06:27:37.740Z,8.68
2023-04-27T06:30:05.300Z,8.68
2023-04-27T06:32:32.313Z,8.69
2023-04-27T06:34:59.462Z,8.71
2023-04-27T06:37:26.480Z,8.71
2023-04-27T06:39:54.360Z,8.72
2023-04-27T06:42:21.323Z,8.74
2023-04-27T06:44:48.359Z,8.78
2023-04-27T06:47:15.363Z,8.79
2023-04-27T06:49:42.304Z,8.78
2023-04-27T06:52:09.206Z,8.78
2023-04-27T06:54:36.336Z,8.77
2023-04-27T06:57:03.495Z,8.77
2023-04-27T06:59:30.495Z,8.78
2023-04-27T07:01:57.614Z,8.79
2023-04-27T07:04:24.836Z,8.79
2023-04-27T07:06:51.929Z,8.78
2023-04-27T07:09:27.059Z,8.81
2023-04-27T07:11:55.485Z,8.82
2023-04-27T07:14:22.547Z,8.82
2023-04-27T07:16:49.482Z,8.81
2023-04-27T07:19:16.971Z,8.82
2023-04-27T07:21:43.986Z,8.83
2023-04-27T07:24:11.248Z,8.82
2023-04-27T07:26:38.193Z,8.85
2023-04-27T07:29:14.456Z,8.88
2023-04-27T07:31:53.093Z,8.89
2023-04-27T07:34:20.518Z,8.91
2023-04-27T07:36:47.659Z,8.93
2023-04-27T07:39:15.248Z,8.95
2023-04-27T07:41:42.462Z,8.96
2023-04-27T07:44:09.477Z,8.97
2023-04-27T07:46:36.562Z,8.98
2023-04-27T07:49:04.032Z,9.00
2023-04-27T07:51:32.156Z,9.02
2023-04-27T07:53:59.253Z,9.04
2023-04-27T07:56:26.435Z,9.04
2023-04-27T07:58:53.428Z,9.04
2023-04-27T08:01:22.136Z,9.05
2023-04-27T08:03:49.319Z,9.06
2023-04-27T08:06:17.162Z,9.06
2023-04-27T08:08:44.485Z,9.06
2023-04-27T08:11:12.333Z,9.07
2023-04-27T08:13:39.402Z,9.07
2023-04-27T08:16:07.198Z,9.06
2023-04-27T08:18:34.652Z,9.06
2023-04-27T08:21:01.660Z,9.06
2023-04-27T08:23:29.646Z,9.07
2023-04-27T08:25:56.676Z,9.08
2023-04-27T08:28:23.898Z,9.07
2023-04-27T08:30:51.979Z,9.07
2023-04-27T08:33:18.949Z,9.07
2023-04-27T08:35:46.016Z,9.08
2023-04-27T08:38:13.064Z,9.09
2023-04-27T08:40:44.111Z,9.10
2023-04-27T08:43:11.371Z,9.10
2023-04-27T08:45:38.418Z,9.12
2023-04-27T08:48:06.391Z,9.12
2023-04-27T08:50:33.431Z,9.12
2023-04-27T08:53:00.768Z,9.12
2023-04-27T08:55:28.257Z,9.12
2023-04-27T08:57:58.753Z,9.12
2023-04-27T09:00:27.932Z,9.13
2023-04-27T09:02:55.289Z,9.13
2023-04-27T09:05:23.809Z,9.09
2023-04-27T09:08:02.441Z,9.07
2023-04-27T09:10:29.818Z,9.10
2023-04-27T09:12:58.126Z,9.15
2023-04-27T09:15:25.252Z,9.20
2023-04-27T09:17:56.756Z,9.24
2023-04-27T09:20:27.042Z,9.29
2023-04-27T09:22:58.800Z,9.32
2023-04-27T09:25:28.202Z,9.33
2023-04-27T09:27:56.293Z,9.37
2023-04-27T09:30:23.438Z,9.42
2023-04-27T09:33:03.993Z,9.47
2023-04-27T09:35:32.901Z,9.51
2023-04-27T09:38:00.923Z,9.54
2023-04-27T09:40:29.884Z,9.54
2023-04-27T09:43:03.791Z,9.52
2023-04-27T09:45:33.830Z,9.51
2023-04-27T09:48:02.369Z,9.51
2023-04-27T09:50:29.381Z,9.49
2023-04-27T09:52:57.342Z,9.49
2023-04-27T09:55:40.710Z,9.51
2023-04-27T09:58:46.521Z,9.53
2023-04-27T10:01:37.291Z,9.53
2023-04-27T10:04:36.594Z,9.54
2023-04-27T10:07:13.099Z,9.55
2023-04-27T10:09:41.866Z,9.55
2023-04-27T10:12:20.045Z,9.53
2023-04-27T10:14:57.192Z,9.49
2023-04-27T10:17:34.676Z,9.49
2023-04-27T10:20:10.889Z,9.49
2023-04-27T10:22:48.052Z,9.45
2023-04-27T10:25:16.741Z,9.43
2023-04-27T10:27:43.842Z,9.39
2023-04-27T10:30:11.853Z,9.37
2023-04-27T10:32:38.877Z,9.35
2023-04-27T10:35:07.690Z,9.33
2023-04-27T10:37:44.095Z,9.32
2023-04-27T10:40:15.138Z,9.31
2023-04-27T10:42:42.296Z,9.27
2023-04-27T10:45:09.713Z,9.23
2023-04-27T10:47:44.329Z,9.21
2023-04-27T10:50:13.702Z,9.19
2023-04-27T10:52:44.367Z,9.15
2023-04-27T10:55:22.280Z,9.14
2023-04-27T10:57:56.098Z,9.15
2023-04-27T11:00:35.296Z,9.14
2023-04-27T11:03:20.695Z,9.13
2023-04-27T11:05:49.307Z,9.09
2023-04-27T11:08:17.444Z,9.05
2023-04-27T11:10:46.630Z,9.03
2023-04-27T11:13:15.331Z,9.02
2023-04-27T11:15:44.990Z,9.02
2023-04-27T11:18:12.356Z,9.02
2023-04-27T11:20:39.384Z,9.02
2023-04-27T11:23:06.386Z,9.02
2023-04-27T11:25:33.347Z,9.00
2023-04-27T11:28:00.429Z,8.99
2023-04-27T11:30:27.406Z,9.00
2023-04-27T11:32:54.731Z,9.02
2023-04-27T11:35:32.711Z,9.03
2023-04-27T11:37:59.774Z,9.02
2023-04-27T11:40:28.765Z,9.01
2023-04-27T11:42:59.685Z,8.98
2023-04-27T11:45:30.141Z,8.96
2023-04-27T11:48:00.994Z,8.94
2023-04-27T11:50:28.042Z,8.93
2023-04-27T11:52:56.081Z,8.94
2023-04-27T11:55:24.834Z,8.96
2023-04-27T11:57:57.285Z,8.95
2023-04-27T12:00:25.036Z,8.94
2023-04-27T12:02:52.189Z,8.97
2023-04-27T12:05:20.604Z,8.97
2023-04-27T12:07:48.177Z,8.95
2023-04-27T12:10:15.244Z,8.93
2023-04-27T12:12:42.541Z,8.92
2023-04-27T12:15:10.374Z,8.93
2023-04-27T12:17:38.967Z,8.96
2023-04-27T12:20:06.516Z,9.00
2023-04-27T12:22:34.027Z,9.03
2023-04-27T12:25:01.827Z,9.04
2023-04-27T12:27:29.063Z,9.04
2023-04-27T12:29:58.959Z,9.04
2023-04-27T12:32:26.157Z,9.05
2023-04-27T12:34:53.817Z,9.05
2023-04-27T12:37:21.791Z,9.05
2023-04-27T12:39:49.899Z,9.05
2023-04-27T12:42:20.023Z,9.05
2023-04-27T12:44:47.639Z,9.06
2023-04-27T12:47:27.798Z,9.07
2023-04-27T12:50:01.516Z,9.06
2023-04-27T12:52:28.963Z,9.04
2023-04-27T12:54:59.400Z,9.04
2023-04-27T12:57:26.923Z,9.03
2023-04-27T12:59:53.852Z,9.04
2023-04-27T13:02:21.149Z,9.03
2023-04-27T13:04:48.711Z,8.99
2023-04-27T13:07:15.853Z,8.92
2023-04-27T13:09:42.854Z,8.88
2023-04-27T13:12:09.917Z,8.85
2023-04-27T13:14:36.946Z,8.82
2023-04-27T13:17:04.462Z,8.80
2023-04-27T13:19:31.817Z,8.80
2023-04-27T13:21:58.777Z,8.82
2023-04-27T13:24:26.090Z,8.84
2023-04-27T13:26:53.040Z,8.85
2023-04-27T13:29:20.079Z,8.86
2023-04-27T13:31:47.121Z,8.84
2023-04-27T13:34:14.836Z,8.82
2023-04-27T13:36:42.049Z,8.80
2023-04-27T13:39:09.018Z,8.77
2023-04-27T13:41:36.275Z,8.74
2023-04-27T13:44:03.525Z,8.73
2023-04-27T13:46:30.895Z,8.75
2023-04-27T13:48:57.953Z,8.78
2023-04-27T13:51:25.379Z,8.81
2023-04-27T13:53:52.343Z,8.84
2023-04-27T13:56:19.325Z,8.85
2023-04-27T13:58:46.617Z,8.84
2023-04-27T14:01:13.682Z,8.82
2023-04-27T14:03:43.308Z,8.82
2023-04-27T14:06:10.852Z,8.80
2023-04-27T14:08:38.011Z,8.77
2023-04-27T14:11:06.751Z,8.75
2023-04-27T14:13:33.684Z,8.75
2023-04-27T14:16:00.708Z,8.76
2023-04-27T14:18:32.437Z,8.76
2023-04-27T14:20:59.910Z,8.75
2023-04-27T14:23:27.352Z,8.75
2023-04-27T14:25:54.304Z,8.75
2023-04-27T14:28:21.613Z,8.76
2023-04-27T14:30:48.594Z,8.78
2023-04-27T14:33:15.738Z,8.77
2023-04-27T14:35:46.301Z,8.76
2023-04-27T14:38:13.361Z,8.76
2023-04-27T14:40:41.282Z,8.77
2023-04-27T14:43:08.299Z,8.77
2023-04-27T14:45:47.773Z,8.77
2023-04-27T14:48:17.592Z,8.75
2023-04-27T14:50:44.700Z,8.72
2023-04-27T14:53:11.688Z,8.70
2023-04-27T14:55:38.693Z,8.70
2023-04-27T14:58:05.762Z,8.70
2023-04-27T15:00:32.728Z,8.68
2023-04-27T15:02:59.847Z,8.65
2023-04-27T15:05:26.800Z,8.62
2023-04-27T15:07:53.824Z,8.61
2023-04-27T15:10:21.054Z,8.59
2023-04-27T15:12:48.037Z,8.58
2023-04-27T15:15:15.138Z,8.58
2023-04-27T15:17:42.140Z,8.58
2023-04-27T15:20:09.308Z,8.61
2023-04-27T15:22:36.534Z,8.63
2023-04-27T15:25:03.875Z,8.62
2023-04-27T15:27:30.943Z,8.61
2023-04-27T15:29:58.290Z,8.64
2023-04-27T15:32:30.177Z,8.66
2023-04-27T15:34:57.813Z,8.66
2023-04-27T15:37:25.829Z,8.67
2023-04-27T15:39:52.722Z,8.67
2023-04-27T15:42:19.759Z,8.67
2023-04-27T15:44:54.269Z,8.67
2023-04-27T15:47:21.843Z,8.65
2023-04-27T15:49:57.004Z,8.65
2023-04-27T15:52:25.812Z,8.65
2023-04-27T15:54:52.719Z,8.66
2023-04-27T15:57:19.689Z,8.65
2023-04-27T15:59:46.779Z,8.65
2023-04-27T16:02:13.868Z,8.64
2023-04-27T16:04:40.961Z,8.63
2023-04-27T16:07:08.485Z,8.61
2023-04-27T16:09:35.558Z,8.62
2023-04-27T16:12:04.021Z,8.64
2023-04-27T16:14:31.120Z,8.65
2023-04-27T16:17:02.167Z,8.68
2023-04-27T16:19:29.230Z,8.70
2023-04-27T16:21:56.477Z,8.72
2023-04-27T16:24:25.173Z,8.74
2023-04-27T16:26:52.159Z,8.75
2023-04-27T16:29:19.193Z,8.73
2023-04-27T16:31:49.946Z,8.73
2023-04-27T16:34:16.917Z,8.73
2023-04-27T16:36:44.847Z,8.73
2023-04-27T16:39:14.227Z,8.73
2023-04-27T16:41:41.508Z,8.73
2023-04-27T16:44:08.950Z,8.73
2023-04-27T16:46:36.178Z,8.72
2023-04-27T16:49:03.916Z,8.72
2023-04-27T16:51:31.224Z,8.73
2023-04-27T16:54:01.107Z,8.72
2023-04-27T16:56:29.864Z,8.71
2023-04-27T16:58:56.945Z,8.69
2023-04-27T17:01:27.307Z,8.70
2023-04-27T17:03:54.427Z,8.69
2023-04-27T17:06:21.590Z,8.68
2023-04-27T17:08:48.509Z,8.66
2023-04-27T17:11:15.621Z,8.64
2023-04-27T17:13:42.581Z,8.64
2023-04-27T17:16:13.495Z,8.63
2023-04-27T17:18:42.960Z,8.62
2023-04-27T17:21:10.818Z,8.61
2023-04-27T17:23:38.074Z,8.59
2023-04-27T17:26:05.197Z,8.55
2023-04-27T17:28:32.386Z,8.55
2023-04-27T17:31:00.379Z,8.57
2023-04-27T17:33:27.401Z,8.60
2023-04-27T17:35:54.378Z,8.61
2023-04-27T17:38:21.502Z,8.61
2023-04-27T17:40:49.029Z,8.60
2023-04-27T17:43:16.079Z,8.59
2023-04-27T17:45:43.129Z,8.57
2023-04-27T17:48:10.951Z,8.55
2023-04-27T17:50:38.128Z,8.54
2023-04-27T17:53:06.008Z,8.53
2023-04-27T17:55:33.383Z,8.53
2023-04-27T17:58:00.546Z,8.53
2023-04-27T18:00:27.711Z,8.52
2023-04-27T18:02:55.131Z,8.50
2023-04-27T18:05:22.281Z,8.48
2023-04-27T18:07:50.234Z,8.46
2023-04-27T18:10:17.320Z,8.44
2023-04-27T18:12:44.290Z,8.43
2023-04-27T18:15:11.542Z,8.42
2023-04-27T18:17:38.751Z,8.42
2023-04-27T18:20:09.899Z,8.41
2023-04-27T18:22:40.256Z,8.42
2023-04-27T18:25:09.982Z,8.40
2023-04-27T18:27:37.883Z,8.39
2023-04-27T18:30:06.359Z,8.40
2023-04-27T18:32:34.158Z,8.39
2023-04-27T18:35:01.290Z,8.40
2023-04-27T18:37:28.386Z,8.41
2023-04-27T18:39:55.844Z,8.43
2023-04-27T18:42:23.604Z,8.44
2023-04-27T18:44:59.937Z,8.46
2023-04-27T18:47:27.837Z,8.46
2023-04-27T18:49:55.045Z,8.46
2023-04-27T18:52:22.115Z,8.47
2023-04-27T18:54:49.165Z,8.46
2023-04-27T18:57:17.376Z,8.46
2023-04-27T18:59:44.462Z,8.46
2023-04-27T19:02:11.529Z,8.45
2023-04-27T19:04:39.682Z,8.46
2023-04-27T19:07:08.099Z,8.46
2023-04-27T19:09:35.442Z,8.47
2023-04-27T19:12:03.752Z,8.48
2023-04-27T19:14:31.908Z,8.48
2023-04-27T19:16:59.074Z,8.50
2023-04-27T19:19:26.889Z,8.51
2023-04-27T19:21:58.556Z,8.52
2023-04-27T19:24:26.247Z,8.52
2023-04-27T19:26:53.249Z,8.50
2023-04-27T19:29:23.137Z,8.49
2023-04-27T19:31:50.062Z,8.47
2023-04-27T19:34:17.082Z,8.48
2023-04-27T19:36:44.016Z,8.49
2023-04-27T19:39:13.557Z,8.49
2023-04-27T19:41:40.886Z,8.50
2023-04-27T19:44:07.808Z,8.51
2023-04-27T19:46:34.841Z,8.53
2023-04-27T19:49:02.144Z,8.53
2023-04-27T19:51:29.649Z,8.54
2023-04-27T19:53:56.772Z,8.53
2023-04-27T19:56:23.953Z,8.53
2023-04-27T19:58:51.173Z,8.52
2023-04-27T20:01:18.302Z,8.50
2023-04-27T20:03:45.561Z,8.50
2023-04-27T20:06:12.780Z,8.50
2023-04-27T20:08:39.831Z,8.50
2023-04-27T20:11:06.792Z,8.51
2023-04-27T20:13:33.735Z,8.53
2023-04-27T20:16:00.716Z,8.56
2023-04-27T20:18:31.732Z,8.56
2023-04-27T20:21:02.142Z,8.56
2023-04-27T20:23:29.405Z,8.56
2023-04-27T20:25:56.764Z,8.57
2023-04-27T20:28:23.708Z,8.57
2023-04-27T20:30:50.761Z,8.58
2023-04-27T20:33:17.877Z,8.60
2023-04-27T20:35:47.395Z,8.61
2023-04-27T20:38:14.379Z,8.62
2023-04-27T20:40:42.283Z,8.64
2023-04-27T20:43:09.728Z,8.66
2023-04-27T20:45:36.730Z,8.66
2023-04-27T20:48:04.039Z,8.66
2023-04-27T20:50:31.199Z,8.66
2023-04-27T20:52:58.176Z,8.66
2023-04-27T20:55:25.193Z,8.66
2023-04-27T20:57:52.214Z,8.68
2023-04-27T21:00:19.413Z,8.70
2023-04-27T21:02:48.291Z,8.69
2023-04-27T21:05:16.363Z,8.69
2023-04-27T21:07:43.306Z,8.69
2023-04-27T21:10:12.843Z,8.70
2023-04-27T21:12:39.867Z,8.69
2023-04-27T21:15:13.071Z,8.68
2023-04-27T21:17:40.079Z,8.67
2023-04-27T21:20:10.035Z,8.66
2023-04-27T21:22:37.539Z,8.66
2023-04-27T21:25:04.819Z,8.67
2023-04-27T21:27:31.885Z,8.68
2023-04-27T21:29:58.862Z,8.69
2023-04-27T21:32:26.033Z,8.69
2023-04-27T21:34:53.070Z,8.69
2023-04-27T21:37:20.032Z,8.67
2023-04-27T21:39:46.992Z,8.66
2023-04-27T21:42:13.985Z,8.64
2023-04-27T21:44:41.326Z,8.63
2023-04-27T21:47:08.313Z,8.60
2023-04-27T21:49:35.408Z,8.58
2023-04-27T21:52:02.395Z,8.56
2023-04-27T21:54:29.382Z,8.55
2023-04-27T21:56:56.315Z,8.54
2023-04-27T21:59:23.281Z,8.52
2023-04-27T22:01:50.628Z,8.51
2023-04-27T22:04:18.100Z,8.49
2023-04-27T22:06:45.556Z,8.46
2023-04-27T22:09:12.620Z,8.46
2023-04-27T22:11:39.725Z,8.46
2023-04-27T22:14:06.692Z,8.46
2023-04-27T22:16:33.628Z,8.45
2023-04-27T22:19:00.607Z,8.43
2023-04-27T22:21:29.001Z,8.39
2023-04-27T22:23:55.959Z,8.37
2023-04-27T22:26:29.730Z,8.34
2023-04-27T22:28:56.704Z,8.32
2023-04-27T22:31:23.765Z,8.30
2023-04-27T22:33:51.350Z,8.28
2023-04-27T22:36:18.348Z,8.28
2023-04-27T22:38:45.268Z,8.30
2023-04-27T22:41:12.533Z,8.30
2023-04-27T22:43:39.533Z,8.31
2023-04-27T22:46:06.548Z,8.33
2023-04-27T22:48:33.636Z,8.35
2023-04-27T22:51:00.600Z,8.34
2023-04-27T22:53:27.557Z,8.34
2023-04-27T22:55:54.594Z,8.33
2023-04-27T22:58:21.967Z,8.33
2023-04-27T23:00:48.962Z,8.33
2023-04-27T23:03:16.128Z,8.32
2023-04-27T23:05:43.551Z,8.33
2023-04-27T23:08:10.536Z,8.33
2023-04-27T23:10:38.988Z,8.32
2023-04-27T23:13:07.431Z,8.32
2023-04-27T23:15:34.383Z,8.32
2023-04-27T23:18:01.482Z,8.30
2023-04-27T23:20:29.339Z,8.28
2023-04-27T23:22:56.761Z,8.28
2023-04-27T23:25:23.825Z,8.27
2023-04-27T23:27:52.137Z,8.25
2023-04-27T23:30:21.489Z,8.24
2023-04-27T23:32:48.552Z,8.23
2023-04-27T23:35:15.753Z,8.24
2023-04-27T23:37:43.013Z,8.24
2023-04-27T23:40:10.222Z,8.25
2023-04-27T23:42:37.129Z,8.25
2023-04-27T23:45:05.196Z,8.27
2023-04-27T23:47:34.108Z,8.25
2023-04-27T23:50:02.468Z,8.25
2023-04-27T23:52:29.562Z,8.25
2023-04-27T23:54:57.888Z,8.24
2023-04-27T23:57:24.817Z,8.23
2023-04-27T23:59:51.750Z,8.20
